createdAt,value
2023-05-10T05:03:19.799Z,500.00
2023-05-10T05:04:20.680Z,500.00
2023-05-10T05:05:20.661Z,500.00
2023-05-10T05:06:19.657Z,500.00
2023-05-10T05:07:19.637Z,500.00
2023-05-10T05:08:19.653Z,500.00
2023-05-10T05:09:20.645Z,400.00
2023-05-10T05:10:19.862Z,400.00
2023-05-10T05:11:19.629Z,400.00
2023-05-10T05:12:19.610Z,400.00
2023-05-10T05:13:20.660Z,400.00
2023-05-10T05:14:19.614Z,400.00
2023-05-10T05:15:19.596Z,400.00
2023-05-10T05:16:19.627Z,400.00
2023-05-10T05:17:20.590Z,400.00
2023-05-10T05:18:20.568Z,400.00
2023-05-10T05:19:20.603Z,400.00
2023-05-10T05:20:20.568Z,400.00
2023-05-10T05:21:19.561Z,400.00
2023-05-10T05:22:20.567Z,400.00
2023-05-10T05:23:19.550Z,400.00
2023-05-10T05:24:19.576Z,504.00
2023-05-10T05:25:19.594Z,444.00
2023-05-10T05:26:20.620Z,480.00
2023-05-10T05:27:20.623Z,500.00
2023-05-10T05:28:20.681Z,500.00
2023-05-10T05:29:19.715Z,503.00
2023-05-10T05:30:19.747Z,501.00
2023-05-10T05:31:20.809Z,511.00
2023-05-10T05:32:20.795Z,486.00
2023-05-10T05:33:20.783Z,502.00
2023-05-10T05:34:20.845Z,500.00
2023-05-10T05:35:20.865Z,500.00
2023-05-10T05:36:20.895Z,500.00
2023-05-10T05:37:19.921Z,500.00
2023-05-10T05:38:20.961Z,503.00
2023-05-10T05:39:21.000Z,504.00
2023-05-10T05:40:21.020Z,504.00
2023-05-10T05:41:20.037Z,501.00
2023-05-10T05:42:21.225Z,502.00
2023-05-10T05:43:20.105Z,503.00
2023-05-10T05:44:20.101Z,500.00
2023-05-10T05:45:20.359Z,501.00
2023-05-10T05:46:20.200Z,500.00
2023-05-10T05:47:21.167Z,514.00
2023-05-10T05:48:21.183Z,506.00
2023-05-10T05:49:21.212Z,503.00
2023-05-10T05:50:21.272Z,506.00
2023-05-10T05:51:20.433Z,502.00
2023-05-10T05:52:20.255Z,499.00
2023-05-10T05:53:21.273Z,509.00
2023-05-10T05:54:21.295Z,519.00
2023-05-10T05:55:21.303Z,535.00
2023-05-10T05:56:20.315Z,511.00
2023-05-10T05:57:21.316Z,526.00
2023-05-10T05:58:20.324Z,530.00
2023-05-10T05:59:21.353Z,557.00
2023-05-10T06:00:21.365Z,564.00
2023-05-10T06:01:20.423Z,542.00
2023-05-10T06:02:21.525Z,559.00
2023-05-10T06:03:21.534Z,559.00
2023-05-10T06:04:20.552Z,552.00
2023-05-10T06:05:21.511Z,546.00
2023-05-10T06:06:21.615Z,531.00
2023-05-10T06:07:20.648Z,539.00
2023-05-10T06:08:21.667Z,539.00
2023-05-10T06:09:21.707Z,535.00
2023-05-10T06:10:21.749Z,523.00
2023-05-10T06:11:20.789Z,515.00
2023-05-10T06:12:20.827Z,524.00
2023-05-10T06:13:21.904Z,515.00
2023-05-10T06:14:21.887Z,514.00
2023-05-10T06:15:20.891Z,500.00
2023-05-10T06:16:21.968Z,507.00
2023-05-10T06:17:21.927Z,500.00
2023-05-10T06:18:20.944Z,504.00
2023-05-10T06:19:20.968Z,506.00
2023-05-10T06:20:20.972Z,500.00
2023-05-10T06:21:21.983Z,500.00
2023-05-10T06:22:22.002Z,503.00
2023-05-10T06:23:21.012Z,511.00
2023-05-10T06:24:21.975Z,509.00
2023-05-10T06:25:20.992Z,505.00
2023-05-10T06:26:22.455Z,514.00
2023-05-10T06:27:21.229Z,511.00
2023-05-10T06:28:22.038Z,508.00
2023-05-10T06:29:21.058Z,509.00
2023-05-10T06:30:21.100Z,501.00
2023-05-10T06:31:21.095Z,505.00
2023-05-10T06:32:22.112Z,530.00
2023-05-10T06:33:22.132Z,532.00
2023-05-10T06:34:21.165Z,544.00
2023-05-10T06:35:22.212Z,545.00
2023-05-10T06:36:22.283Z,551.00
2023-05-10T06:37:21.342Z,555.00
2023-05-10T06:38:21.378Z,560.00
2023-05-10T06:39:22.575Z,561.00
2023-05-10T06:40:22.486Z,567.00
2023-05-10T06:41:24.611Z,573.00
2023-05-10T06:42:22.527Z,572.00
2023-05-10T06:43:22.510Z,572.00
2023-05-10T06:44:22.506Z,572.00
2023-05-10T06:45:21.497Z,587.00
2023-05-10T06:46:21.523Z,588.00
2023-05-10T06:47:22.484Z,587.00
2023-05-10T06:48:21.501Z,601.00
2023-05-10T06:49:22.477Z,591.00
2023-05-10T06:50:22.460Z,589.00
2023-05-10T06:51:22.465Z,588.00
2023-05-10T06:52:22.949Z,588.00
2023-05-10T06:53:22.432Z,588.00
2023-05-10T06:54:22.431Z,586.00
2023-05-10T06:55:21.437Z,584.00
2023-05-10T06:56:21.411Z,583.00
2023-05-10T06:57:31.305Z,583.00
2023-05-10T06:58:22.405Z,583.00
2023-05-10T06:59:21.413Z,584.00
2023-05-10T07:00:21.684Z,581.00
2023-05-10T07:01:21.467Z,575.00
2023-05-10T07:02:22.455Z,577.00
2023-05-10T07:03:22.528Z,564.00
2023-05-10T07:04:22.410Z,564.00
2023-05-10T07:05:21.589Z,562.00
2023-05-10T07:06:32.853Z,561.00
2023-05-10T07:07:22.343Z,561.00
2023-05-10T07:08:22.333Z,563.00
2023-05-10T07:09:22.335Z,564.00
2023-05-10T07:10:22.340Z,564.00
2023-05-10T07:11:22.378Z,559.00
2023-05-10T07:12:22.379Z,562.00
2023-05-10T07:13:21.416Z,554.00
2023-05-10T07:14:22.300Z,557.00
2023-05-10T07:15:21.331Z,558.00
2023-05-10T07:16:21.310Z,555.00
2023-05-10T07:17:22.327Z,554.00
2023-05-10T07:18:22.304Z,551.00
2023-05-10T07:19:22.282Z,559.00
2023-05-10T07:20:21.249Z,561.00
2023-05-10T07:21:22.340Z,554.00
2023-05-10T07:22:21.256Z,555.00
2023-05-10T07:23:21.228Z,554.00
2023-05-10T07:24:22.225Z,547.00
2023-05-10T07:25:22.228Z,545.00
2023-05-10T07:26:22.224Z,542.00
2023-05-10T07:27:22.273Z,544.00
2023-05-10T07:28:22.216Z,541.00
2023-05-10T07:29:21.218Z,548.00
2023-05-10T07:30:22.210Z,546.00
2023-05-10T07:31:22.183Z,545.00
2023-05-10T07:32:22.258Z,545.00
2023-05-10T07:33:22.222Z,536.00
2023-05-10T07:34:22.179Z,544.00
2023-05-10T07:35:21.152Z,541.00
2023-05-10T07:36:21.153Z,539.00
2023-05-10T07:37:22.218Z,537.00
2023-05-10T07:38:22.216Z,537.00
2023-05-10T07:39:27.211Z,543.00
2023-05-10T07:40:22.261Z,544.00
2023-05-10T07:41:22.223Z,543.00
2023-05-10T07:42:22.317Z,542.00
2023-05-10T07:43:22.278Z,543.00
2023-05-10T07:44:21.248Z,535.00
2023-05-10T07:45:21.196Z,533.00
2023-05-10T07:46:21.217Z,527.00
2023-05-10T07:47:22.510Z,525.00
2023-05-10T07:48:22.192Z,527.00
2023-05-10T07:49:22.189Z,532.00
2023-05-10T07:50:21.199Z,510.00
2023-05-10T07:51:22.181Z,518.00
2023-05-10T07:52:22.858Z,526.00
2023-05-10T07:53:21.164Z,529.00
2023-05-10T07:54:22.130Z,548.00
2023-05-10T07:55:21.157Z,544.00
2023-05-10T07:56:22.121Z,547.00
2023-05-10T07:57:22.135Z,565.00
2023-05-10T07:58:22.114Z,566.00
2023-05-10T07:59:21.124Z,574.00
2023-05-10T08:00:22.261Z,574.00
2023-05-10T08:01:22.100Z,585.00
2023-05-10T08:02:21.153Z,596.00
2023-05-10T08:03:21.298Z,595.00
2023-05-10T08:04:21.112Z,600.00
2023-05-10T08:05:22.082Z,588.00
2023-05-10T08:06:21.096Z,548.00
2023-05-10T08:07:22.137Z,538.00
2023-05-10T08:08:22.212Z,529.00
2023-05-10T08:09:22.234Z,529.00
2023-05-10T08:10:21.334Z,520.00
2023-05-10T08:11:21.347Z,523.00
2023-05-10T08:12:22.412Z,519.00
2023-05-10T08:13:22.466Z,518.00
2023-05-10T08:14:21.542Z,500.00
2023-05-10T08:15:21.607Z,502.00
2023-05-10T08:16:22.614Z,513.00
2023-05-10T08:17:22.805Z,500.00
2023-05-10T08:18:22.226Z,529.00
2023-05-10T08:19:21.790Z,512.00
2023-05-10T08:20:21.967Z,532.00
2023-05-10T08:21:22.830Z,543.00
2023-05-10T08:22:22.893Z,573.00
2023-05-10T08:23:22.927Z,580.00
2023-05-10T08:24:22.960Z,581.00
2023-05-10T08:25:21.987Z,596.00
2023-05-10T08:26:23.022Z,599.00
2023-05-10T08:27:23.130Z,606.00
2023-05-10T08:28:23.107Z,614.00
2023-05-10T08:29:22.105Z,615.00
2023-05-10T08:30:23.157Z,619.00
2023-05-10T08:31:23.168Z,623.00
2023-05-10T08:32:23.193Z,629.00
2023-05-10T08:33:23.193Z,630.00
2023-05-10T08:34:23.527Z,627.00
2023-05-10T08:35:22.200Z,637.00
2023-05-10T08:36:23.221Z,635.00
2023-05-10T08:37:23.248Z,642.00
2023-05-10T08:38:23.232Z,646.00
2023-05-10T08:39:29.759Z,650.00
2023-05-10T08:40:23.226Z,650.00
2023-05-10T08:41:22.228Z,650.00
2023-05-10T08:42:22.480Z,652.00
2023-05-10T08:43:23.217Z,644.00
2023-05-10T08:44:23.198Z,648.00
2023-05-10T08:45:23.176Z,653.00
2023-05-10T08:46:23.274Z,652.00
2023-05-10T08:47:22.259Z,650.00
2023-05-10T08:48:23.164Z,654.00
2023-05-10T08:49:22.155Z,651.00
2023-05-10T08:50:23.158Z,647.00
2023-05-10T08:51:23.167Z,646.00
2023-05-10T08:52:23.157Z,645.00
2023-05-10T08:53:23.151Z,645.00
2023-05-10T08:54:23.166Z,640.00
2023-05-10T08:55:23.123Z,650.00
2023-05-10T08:56:23.154Z,644.00
2023-05-10T08:57:22.478Z,647.00
2023-05-10T08:58:23.110Z,642.00
2023-05-10T08:59:22.096Z,646.00
2023-05-10T09:00:22.091Z,647.00
2023-05-10T09:01:23.315Z,651.00
2023-05-10T09:02:22.147Z,647.00
2023-05-10T09:03:23.219Z,642.00
2023-05-10T09:04:23.237Z,643.00
2023-05-10T09:05:23.248Z,643.00
2023-05-10T09:06:23.275Z,647.00
2023-05-10T09:07:22.298Z,645.00
2023-05-10T09:08:22.329Z,647.00
2023-05-10T09:09:22.354Z,643.00
2023-05-10T09:10:23.389Z,648.00
2023-05-10T09:11:22.413Z,654.00
2023-05-10T09:12:23.484Z,657.00
2023-05-10T09:13:22.468Z,658.00
2023-05-10T09:14:22.491Z,654.00
2023-05-10T09:15:22.525Z,661.00
2023-05-10T09:16:22.768Z,669.00
2023-05-10T09:17:23.764Z,669.00
2023-05-10T09:18:24.339Z,682.00
2023-05-10T09:19:23.607Z,677.00
2023-05-10T09:20:23.590Z,685.00
2023-05-10T09:21:23.573Z,688.00
2023-05-10T09:22:22.628Z,669.00
2023-05-10T09:23:23.559Z,673.00
2023-05-10T09:24:23.589Z,669.00
2023-05-10T09:25:23.619Z,666.00
2023-05-10T09:26:23.540Z,672.00
2023-05-10T09:27:23.538Z,667.00
2023-05-10T09:28:22.576Z,666.00
2023-05-10T09:29:23.514Z,669.00
2023-05-10T09:30:23.499Z,669.00
2023-05-10T09:31:23.738Z,664.00
2023-05-10T09:32:23.582Z,661.00
2023-05-10T09:33:22.493Z,657.00
2023-05-10T09:34:23.478Z,656.00
2023-05-10T09:35:23.682Z,654.00
2023-05-10T09:36:23.462Z,663.00
2023-05-10T09:37:22.466Z,660.00
2023-05-10T09:38:23.450Z,663.00
2023-05-10T09:39:23.460Z,658.00
2023-05-10T09:40:23.466Z,659.00
2023-05-10T09:41:22.439Z,654.00
2023-05-10T09:42:22.482Z,646.00
2023-05-10T09:43:23.431Z,648.00
2023-05-10T09:44:23.416Z,643.00
2023-05-10T09:45:23.403Z,645.00
2023-05-10T09:46:22.472Z,639.00
2023-05-10T09:47:23.457Z,643.00
2023-05-10T09:48:22.496Z,641.00
2023-05-10T09:49:23.382Z,640.00
2023-05-10T09:50:22.395Z,633.00
2023-05-10T09:51:23.387Z,636.00
2023-05-10T09:52:23.353Z,638.00
2023-05-10T09:53:23.501Z,639.00
2023-05-10T09:54:23.350Z,636.00
2023-05-10T09:55:23.348Z,629.00
2023-05-10T09:56:23.342Z,635.00
2023-05-10T09:57:22.373Z,634.00
2023-05-10T09:58:22.346Z,634.00
2023-05-10T09:59:23.305Z,636.00
2023-05-10T10:00:23.288Z,637.00
2023-05-10T10:01:23.339Z,634.00
2023-05-10T10:02:22.291Z,631.00
2023-05-10T10:03:23.549Z,636.00
2023-05-10T10:04:23.321Z,640.00
2023-05-10T10:05:23.276Z,643.00
2023-05-10T10:06:30.078Z,638.00
2023-05-10T10:07:23.285Z,639.00
2023-05-10T10:08:22.239Z,639.00
2023-05-10T10:09:22.260Z,638.00
2023-05-10T10:10:23.242Z,642.00
2023-05-10T10:11:23.244Z,639.00
2023-05-10T10:12:23.219Z,642.00
2023-05-10T10:13:22.224Z,639.00
2023-05-10T10:14:23.199Z,642.00
2023-05-10T10:15:22.441Z,635.00
2023-05-10T10:16:23.234Z,643.00
2023-05-10T10:17:23.255Z,643.00
2023-05-10T10:18:23.187Z,643.00
2023-05-10T10:19:23.178Z,639.00
2023-05-10T10:20:22.174Z,642.00
2023-05-10T10:21:22.173Z,639.00
2023-05-10T10:22:23.152Z,640.00
2023-05-10T10:23:22.227Z,647.00
2023-05-10T10:24:23.161Z,640.00
2023-05-10T10:25:23.164Z,641.00
2023-05-10T10:26:23.131Z,639.00
2023-05-10T10:27:23.109Z,640.00
2023-05-10T10:28:23.199Z,641.00
2023-05-10T10:29:22.108Z,640.00
2023-05-10T10:30:23.094Z,639.00
2023-05-10T10:31:23.132Z,641.00
2023-05-10T10:32:22.138Z,642.00
2023-05-10T10:33:28.570Z,643.00
2023-05-10T10:34:23.099Z,644.00
2023-05-10T10:35:23.077Z,644.00
2023-05-10T10:36:23.105Z,646.00
2023-05-10T10:37:23.065Z,643.00
2023-05-10T10:38:22.038Z,643.00
2023-05-10T10:39:22.066Z,645.00
2023-05-10T10:40:22.030Z,645.00
2023-05-10T10:41:23.013Z,640.00
2023-05-10T10:42:23.015Z,644.00
2023-05-10T10:43:23.022Z,644.00
2023-05-10T10:44:22.000Z,643.00
2023-05-10T10:45:23.001Z,638.00
2023-05-10T10:46:23.033Z,644.00
2023-05-10T10:47:23.027Z,641.00
2023-05-10T10:48:23.038Z,640.00
2023-05-10T10:49:21.993Z,650.00
2023-05-10T10:50:21.983Z,645.00
2023-05-10T10:51:21.955Z,647.00
2023-05-10T10:52:22.955Z,647.00
2023-05-10T10:53:22.033Z,649.00
2023-05-10T10:54:22.015Z,647.00
2023-05-10T10:55:22.966Z,650.00
2023-05-10T10:56:22.052Z,650.00
2023-05-10T10:57:22.933Z,648.00
2023-05-10T10:58:23.004Z,648.00
2023-05-10T10:59:22.896Z,643.00
2023-05-10T11:00:21.934Z,652.00
2023-05-10T11:01:22.979Z,650.00
2023-05-10T11:02:22.916Z,647.00
2023-05-10T11:03:22.942Z,652.00
2023-05-10T11:04:23.021Z,647.00
2023-05-10T11:05:22.972Z,659.00
2023-05-10T11:06:22.027Z,651.00
2023-05-10T11:07:23.036Z,652.00
2023-05-10T11:08:22.024Z,652.00
2023-05-10T11:09:22.057Z,643.00
2023-05-10T11:10:23.065Z,649.00
2023-05-10T11:11:22.092Z,649.00
2023-05-10T11:12:23.081Z,650.00
2023-05-10T11:13:22.109Z,648.00
2023-05-10T11:14:22.151Z,649.00
2023-05-10T11:15:22.152Z,648.00
2023-05-10T11:16:23.217Z,647.00
2023-05-10T11:17:23.249Z,645.00
2023-05-10T11:18:23.293Z,647.00
2023-05-10T11:19:22.313Z,644.00
2023-05-10T11:20:23.347Z,650.00
2023-05-10T11:21:23.384Z,635.00
2023-05-10T11:22:22.397Z,638.00
2023-05-10T11:23:23.415Z,638.00
2023-05-10T11:24:22.405Z,640.00
2023-05-10T11:25:23.455Z,639.00
2023-05-10T11:26:23.456Z,638.00
2023-05-10T11:27:22.459Z,638.00
2023-05-10T11:28:23.538Z,643.00
2023-05-10T11:29:22.580Z,639.00
2023-05-10T11:30:22.708Z,637.00
2023-05-10T11:31:23.663Z,641.00
2023-05-10T11:32:22.701Z,638.00
2023-05-10T11:33:22.681Z,639.00
2023-05-10T11:34:22.685Z,641.00
2023-05-10T11:35:23.687Z,638.00
2023-05-10T11:36:23.688Z,641.00
2023-05-10T11:37:22.705Z,638.00
2023-05-10T11:38:23.704Z,631.00
2023-05-10T11:39:23.092Z,634.00
2023-05-10T11:40:22.753Z,624.00
2023-05-10T11:41:22.822Z,612.00
2023-05-10T11:42:22.817Z,609.00
2023-05-10T11:43:23.803Z,596.00
2023-05-10T11:44:22.815Z,597.00
2023-05-10T11:45:23.828Z,607.00
2023-05-10T11:46:22.868Z,603.00
2023-05-10T11:47:23.882Z,608.00
2023-05-10T11:48:23.871Z,596.00
2023-05-10T11:49:23.926Z,609.00
2023-05-10T11:50:22.900Z,620.00
2023-05-10T11:51:23.939Z,619.00
2023-05-10T11:52:23.930Z,620.00
2023-05-10T11:53:25.882Z,623.00
2023-05-10T11:54:23.948Z,620.00
2023-05-10T11:55:23.930Z,632.00
2023-05-10T11:56:23.917Z,625.00
2023-05-10T11:57:23.914Z,632.00
2023-05-10T11:58:23.962Z,627.00
2023-05-10T11:59:23.923Z,628.00
2023-05-10T12:00:23.885Z,628.00
2023-05-10T12:01:23.897Z,630.00
2023-05-10T12:02:23.965Z,630.00
2023-05-10T12:03:22.970Z,627.00
2023-05-10T12:04:23.913Z,634.00
2023-05-10T12:05:23.858Z,744.00
2023-05-10T12:06:22.877Z,1144.00
2023-05-10T12:07:23.839Z,852.00
2023-05-10T12:08:22.848Z,926.00
2023-05-10T12:10:22.829Z,944.00
2023-05-10T12:11:22.827Z,958.00
2023-05-10T12:12:23.860Z,978.00
2023-05-10T12:13:23.907Z,1000.00
2023-05-10T12:14:22.998Z,1028.00
2023-05-10T12:15:23.996Z,1037.00
2023-05-10T12:16:23.066Z,1049.00
2023-05-10T12:17:23.034Z,1063.00
2023-05-10T12:18:24.086Z,1076.00
2023-05-10T12:19:23.093Z,1060.00
2023-05-10T12:20:23.119Z,1063.00
2023-05-10T12:21:23.160Z,1079.00
2023-05-10T12:22:24.215Z,1065.00
2023-05-10T12:23:24.250Z,1082.00
2023-05-10T12:24:23.281Z,1078.00
2023-05-10T12:25:24.303Z,1077.00
2023-05-10T12:26:23.338Z,1076.00
2023-05-10T12:27:24.369Z,1091.00
2023-05-10T12:28:24.373Z,1082.00
2023-05-10T12:29:24.393Z,1088.00
2023-05-10T12:30:23.448Z,1080.00
2023-05-10T12:31:23.518Z,1078.00
2023-05-10T12:32:24.527Z,1091.00
2023-05-10T12:33:24.551Z,1091.00
2023-05-10T12:34:24.572Z,1072.00
2023-05-10T12:35:23.605Z,1087.00
2023-05-10T12:36:23.664Z,1082.00
2023-05-10T12:37:24.696Z,1089.00
2023-05-10T12:38:23.726Z,1083.00
2023-05-10T12:39:24.770Z,1091.00
2023-05-10T12:40:24.800Z,1089.00
2023-05-10T12:41:23.860Z,1093.00
2023-05-10T12:42:24.852Z,1086.00
2023-05-10T12:43:24.887Z,1101.00
2023-05-10T12:44:23.929Z,1091.00
2023-05-10T12:45:24.959Z,1108.00
2023-05-10T12:46:24.167Z,1101.00
2023-05-10T12:47:25.059Z,1087.00
2023-05-10T12:48:25.067Z,1094.00
2023-05-10T12:49:25.100Z,1099.00
2023-05-10T12:50:25.120Z,1092.00
2023-05-10T12:51:24.173Z,1096.00
2023-05-10T12:52:24.184Z,1097.00
2023-05-10T12:53:25.212Z,1096.00
2023-05-10T12:54:24.219Z,1096.00
2023-05-10T12:55:25.229Z,1099.00
2023-05-10T12:56:25.244Z,1105.00
2023-05-10T12:57:25.272Z,1104.00
2023-05-10T12:58:34.940Z,1104.00
2023-05-10T12:59:25.260Z,1105.00
2023-05-10T13:00:25.263Z,1104.00
2023-05-10T13:01:25.302Z,1107.00
2023-05-10T13:02:24.384Z,1104.00
2023-05-10T13:03:25.231Z,1101.00
2023-05-10T13:04:25.279Z,1099.00
2023-05-10T13:05:24.217Z,1096.00
2023-05-10T13:06:25.212Z,1099.00
2023-05-10T13:07:25.204Z,1105.00
2023-05-10T13:08:25.215Z,1107.00
2023-05-10T13:09:25.203Z,1101.00
2023-05-10T13:10:25.181Z,1106.00
2023-05-10T13:11:25.171Z,1106.00
2023-05-10T13:12:24.222Z,1101.00
2023-05-10T13:13:25.164Z,1096.00
2023-05-10T13:14:25.159Z,1090.00
2023-05-10T13:15:24.150Z,1091.00
2023-05-10T13:16:25.168Z,1107.00
2023-05-10T13:17:25.214Z,1096.00
2023-05-10T13:18:25.349Z,1091.00
2023-05-10T13:19:24.220Z,1100.00
2023-05-10T13:20:24.223Z,1089.00
2023-05-10T13:21:24.300Z,1087.00
2023-05-10T13:22:36.321Z,1104.00
2023-05-10T13:23:25.380Z,1105.00
2023-05-10T13:24:24.345Z,1099.00
2023-05-10T13:25:25.347Z,1091.00
2023-05-10T13:26:25.342Z,1093.00
2023-05-10T13:27:24.347Z,1096.00
2023-05-10T13:28:25.318Z,1083.00
2023-05-10T13:29:25.323Z,1095.00
2023-05-10T13:30:25.305Z,1090.00
2023-05-10T13:31:25.348Z,1083.00
2023-05-10T13:32:24.323Z,1084.00
2023-05-10T13:33:25.287Z,1079.00
2023-05-10T13:34:25.368Z,1088.00
2023-05-10T13:35:25.284Z,1075.00
2023-05-10T13:36:25.274Z,1081.00
2023-05-10T13:37:25.253Z,1076.00
2023-05-10T13:38:25.265Z,1078.00
2023-05-10T13:39:25.246Z,1074.00
2023-05-10T13:40:25.232Z,1071.00
2023-05-10T13:41:24.236Z,1063.00
2023-05-10T13:42:24.235Z,1072.00
2023-05-10T13:43:25.236Z,1056.00
2023-05-10T13:44:24.257Z,1075.00
2023-05-10T13:45:24.296Z,1066.00
2023-05-10T13:46:24.449Z,1062.00
2023-05-10T13:47:25.318Z,1061.00
2023-05-10T13:48:24.304Z,1048.00
2023-05-10T13:49:25.321Z,1062.00
2023-05-10T13:50:25.365Z,1060.00
2023-05-10T13:51:24.362Z,1056.00
2023-05-10T13:52:24.334Z,1064.00
2023-05-10T13:53:24.359Z,1051.00
2023-05-10T13:54:25.364Z,1055.00
2023-05-10T13:55:25.357Z,1046.00
2023-05-10T13:56:24.355Z,1048.00
2023-05-10T13:57:25.370Z,1052.00
2023-05-10T13:58:24.373Z,1043.00
2023-05-10T13:59:24.378Z,1049.00
2023-05-10T14:00:25.388Z,1043.00
2023-05-10T14:01:25.713Z,1039.00
2023-05-10T14:02:25.499Z,1037.00
2023-05-10T14:03:25.501Z,1054.00
2023-05-10T14:04:24.413Z,1045.00
2023-05-10T14:05:26.268Z,1049.00
2023-05-10T14:06:24.460Z,1058.00
2023-05-10T14:07:24.436Z,1046.00
2023-05-10T14:08:24.517Z,1048.00
2023-05-10T14:09:25.475Z,1038.00
2023-05-10T14:10:24.515Z,1046.00
2023-05-10T14:11:25.525Z,1044.00
2023-05-10T14:12:24.532Z,1043.00
2023-05-10T14:13:25.528Z,1037.00
2023-05-10T14:14:25.519Z,1040.00
2023-05-10T14:15:25.532Z,1043.00
2023-05-10T14:16:24.593Z,1041.00
2023-05-10T14:17:24.563Z,1036.00
2023-05-10T14:18:25.610Z,1047.00
2023-05-10T14:19:24.577Z,1042.00
2023-05-10T14:20:24.578Z,1033.00
2023-05-10T14:21:24.590Z,1030.00
2023-05-10T14:22:25.591Z,1030.00
2023-05-10T14:23:24.598Z,1041.00
2023-05-10T14:24:25.607Z,1037.00
2023-05-10T14:25:24.637Z,1024.00
2023-05-10T14:26:24.626Z,1030.00
2023-05-10T14:27:24.642Z,1031.00
2023-05-10T14:28:24.707Z,1036.00
2023-05-10T14:29:25.636Z,1033.00
2023-05-10T14:30:25.630Z,1035.00
2023-05-10T14:31:24.662Z,1025.00
2023-05-10T14:32:24.662Z,1029.00
2023-05-10T14:33:24.680Z,1033.00
2023-05-10T14:34:25.707Z,1024.00
2023-05-10T14:35:25.995Z,1024.00
2023-05-10T14:36:25.779Z,1030.00
2023-05-10T14:37:24.781Z,1019.00
2023-05-10T14:38:25.816Z,1027.00
2023-05-10T14:39:25.788Z,1032.00
2023-05-10T14:40:25.826Z,1016.00
2023-05-10T14:41:24.827Z,1035.00
2023-05-10T14:42:25.853Z,1034.00
2023-05-10T14:43:25.864Z,1033.00
2023-05-10T14:44:24.843Z,1035.00
2023-05-10T14:45:25.889Z,1016.00
2023-05-10T14:46:24.928Z,1031.00
2023-05-10T14:47:25.917Z,1013.00
2023-05-10T14:48:24.918Z,1023.00
2023-05-10T14:49:25.985Z,1020.00
2023-05-10T14:51:25.998Z,1027.00
2023-05-10T14:52:24.987Z,1030.00
2023-05-10T14:53:25.986Z,1031.00
2023-05-10T14:54:26.003Z,1029.00
2023-05-10T14:55:24.971Z,1030.00
2023-05-10T14:56:25.974Z,1029.00
2023-05-10T14:57:25.961Z,1024.00
2023-05-10T14:58:24.966Z,1028.00
2023-05-10T14:59:25.954Z,1035.00
2023-05-10T15:00:24.952Z,1024.00
2023-05-10T15:01:25.998Z,1022.00
2023-05-10T15:02:25.942Z,1017.00
2023-05-10T15:03:25.105Z,1027.00
2023-05-10T15:04:26.009Z,1010.00
2023-05-10T15:05:24.892Z,1011.00
2023-05-10T15:06:24.936Z,1012.00
2023-05-10T15:07:25.878Z,1014.00
2023-05-10T15:08:24.868Z,1014.00
2023-05-10T15:09:24.862Z,1020.00
2023-05-10T15:10:24.880Z,1010.00
2023-05-10T15:11:24.873Z,1010.00
2023-05-10T15:12:24.846Z,1014.00
2023-05-10T15:13:25.839Z,1021.00
2023-05-10T15:14:25.849Z,1018.00
2023-05-10T15:15:24.844Z,1002.00
2023-05-10T15:16:25.922Z,1006.00
2023-05-10T15:17:25.897Z,1013.00
2023-05-10T15:18:25.821Z,994.00
2023-05-10T15:19:25.815Z,1002.00
2023-05-10T15:20:25.801Z,1010.00
2023-05-10T15:21:25.815Z,1008.00
2023-05-10T15:22:24.779Z,993.00
2023-05-10T15:23:25.774Z,1006.00
2023-05-10T15:24:25.778Z,991.00
2023-05-10T15:25:24.778Z,998.00
2023-05-10T15:26:24.779Z,1001.00
2023-05-10T15:27:24.752Z,994.00
2023-05-10T15:28:25.738Z,989.00
2023-05-10T15:29:24.755Z,988.00
2023-05-10T16:41:25.860Z,500.00
